createdAt,value
2017-08-21T00:01:24.875Z,2.10
2017-08-21T00:03:51.586Z,2.63
2017-08-21T00:06:18.304Z,2.00
2017-08-21T00:08:45.004Z,2.13
2017-08-21T00:11:11.723Z,1.80
2017-08-21T00:13:38.531Z,2.00
2017-08-21T00:16:05.247Z,2.10
2017-08-21T00:18:31.970Z,2.70
2017-08-21T00:20:58.696Z,2.13
2017-08-21T00:23:25.408Z,1.80
2017-08-21T00:25:52.188Z,2.00
2017-08-21T00:28:18.964Z,2.07
2017-08-21T00:30:45.737Z,1.80
2017-08-21T00:33:12.431Z,2.10
2017-08-21T00:35:39.154Z,2.30
2017-08-21T00:38:05.851Z,2.07
2017-08-21T00:40:32.551Z,1.80
2017-08-21T00:42:59.304Z,2.37
2017-08-21T00:45:26.020Z,2.30
2017-08-21T00:47:52.720Z,2.43
2017-08-21T00:50:19.485Z,1.90
2017-08-21T00:52:46.262Z,2.20
2017-08-21T00:55:13.059Z,1.90
2017-08-21T00:57:39.791Z,2.00
2017-08-21T01:00:06.537Z,2.20
2017-08-21T01:02:33.230Z,2.47
2017-08-21T01:04:59.968Z,1.90
2017-08-21T01:07:26.738Z,2.23
2017-08-21T01:09:53.432Z,1.93
2017-08-21T01:12:20.165Z,1.90
2017-08-21T01:14:46.895Z,2.07
2017-08-21T01:17:13.589Z,2.40
2017-08-21T01:19:40.382Z,2.00
2017-08-21T01:22:07.077Z,2.07
2017-08-21T01:24:33.797Z,1.90
2017-08-21T01:27:00.610Z,2.40
2017-08-21T01:29:27.308Z,2.40
2017-08-21T01:31:54.075Z,2.50
2017-08-21T01:34:20.800Z,2.00
2017-08-21T01:36:47.497Z,2.07
2017-08-21T01:39:14.249Z,2.20
2017-08-21T01:41:41.054Z,2.53
2017-08-21T01:44:07.753Z,2.23
2017-08-21T01:46:34.495Z,2.30
2017-08-21T01:49:01.215Z,2.10
2017-08-21T01:51:27.911Z,1.83
2017-08-21T01:53:54.637Z,2.10
2017-08-21T01:56:21.375Z,2.17
2017-08-21T01:58:48.062Z,1.67
2017-08-21T02:01:14.766Z,2.47
2017-08-21T02:03:41.495Z,2.37
2017-08-21T02:06:08.195Z,2.30
2017-08-21T02:08:34.997Z,2.20
2017-08-21T02:11:01.728Z,1.90
2017-08-21T02:13:28.429Z,1.80
2017-08-21T02:15:55.132Z,2.50
2017-08-21T02:18:21.850Z,2.33
2017-08-21T02:20:48.544Z,2.67
2017-08-21T02:23:15.358Z,2.43
2017-08-21T02:25:42.095Z,2.23
2017-08-21T02:28:08.799Z,2.70
2017-08-21T02:30:35.494Z,2.27
2017-08-21T02:33:02.211Z,2.13
2017-08-21T02:35:28.932Z,2.50
2017-08-21T02:37:55.711Z,1.83
2017-08-21T02:40:22.437Z,2.20
2017-08-21T02:42:49.158Z,2.50
2017-08-21T02:45:15.867Z,2.50
2017-08-21T02:47:42.586Z,2.43
2017-08-21T02:50:09.286Z,2.40
2017-08-21T02:52:36.024Z,2.53
2017-08-21T02:55:02.745Z,2.20
2017-08-21T02:57:29.450Z,2.37
2017-08-21T02:59:56.153Z,2.10
2017-08-21T03:02:22.980Z,2.10
2017-08-21T03:04:49.688Z,2.40
2017-08-21T03:07:16.479Z,2.13
2017-08-21T03:09:43.279Z,2.30
2017-08-21T03:12:09.997Z,2.23
2017-08-21T03:14:36.735Z,2.33
2017-08-21T03:17:03.453Z,2.30
2017-08-21T03:19:30.151Z,2.20
2017-08-21T03:21:56.903Z,2.67
2017-08-21T03:24:23.737Z,2.40
2017-08-21T03:26:50.429Z,2.37
2017-08-21T03:29:17.131Z,2.40
2017-08-21T03:31:43.850Z,2.30
2017-08-21T03:34:10.548Z,2.63
2017-08-21T03:36:37.266Z,2.23
2017-08-21T03:39:04.066Z,2.37
2017-08-21T03:41:30.756Z,2.80
2017-08-21T03:43:57.454Z,2.50
2017-08-21T03:46:24.273Z,2.40
2017-08-21T03:48:50.969Z,2.33
2017-08-21T03:51:17.665Z,2.67
2017-08-21T03:53:44.422Z,2.07
2017-08-21T03:56:11.119Z,2.77
2017-08-21T03:58:37.819Z,2.80
2017-08-21T04:01:04.564Z,2.20
2017-08-21T04:03:31.334Z,2.10
2017-08-21T04:05:58.152Z,2.40
2017-08-21T04:08:24.890Z,2.30
2017-08-21T04:10:51.596Z,2.40
2017-08-21T04:13:18.296Z,2.20
2017-08-21T04:15:45.032Z,2.37
2017-08-21T04:18:11.735Z,2.43
2017-08-21T04:20:38.451Z,2.93
2017-08-21T04:23:05.197Z,2.67
2017-08-21T04:25:31.892Z,2.57
2017-08-21T04:27:58.594Z,2.53
2017-08-21T04:30:25.325Z,2.83
2017-08-21T04:32:52.057Z,2.27
2017-08-21T04:35:18.753Z,2.60
2017-08-21T04:37:45.491Z,2.70
2017-08-21T04:40:12.229Z,2.60
2017-08-21T04:42:38.944Z,2.63
2017-08-21T04:45:05.688Z,2.80
2017-08-21T04:47:32.399Z,2.87
2017-08-21T04:49:59.110Z,3.10
2017-08-21T04:52:25.840Z,3.30
2017-08-21T04:54:52.540Z,2.83
2017-08-21T04:57:19.230Z,3.17
2017-08-21T04:59:45.954Z,3.27
2017-08-21T05:02:12.680Z,3.00
2017-08-21T05:04:39.378Z,3.40
2017-08-21T05:07:06.134Z,3.27
2017-08-21T05:09:32.835Z,3.43
2017-08-21T05:11:59.529Z,3.93
2017-08-21T05:14:26.240Z,3.20
2017-08-21T05:16:52.940Z,3.60
2017-08-21T05:19:19.642Z,4.40
2017-08-21T05:21:46.392Z,3.30
2017-08-21T05:24:13.088Z,4.03
2017-08-21T05:26:39.786Z,3.27
2017-08-21T05:29:06.500Z,4.20
2017-08-21T05:31:33.225Z,3.87
2017-08-21T05:33:59.920Z,3.60
2017-08-21T05:36:26.647Z,4.50
2017-08-21T05:38:53.338Z,3.87
2017-08-21T05:41:20.035Z,3.50
2017-08-21T05:43:46.742Z,5.30
2017-08-21T05:46:13.434Z,3.60
2017-08-21T05:48:40.147Z,4.50
2017-08-21T05:51:06.860Z,3.63
2017-08-21T05:53:33.550Z,2.73
2017-08-21T05:56:00.239Z,2.90
2017-08-21T05:58:26.972Z,3.47
2017-08-21T06:00:53.672Z,3.77
2017-08-21T06:03:20.367Z,3.77
2017-08-21T06:05:47.087Z,3.90
2017-08-21T06:08:13.775Z,3.50
2017-08-21T06:10:40.473Z,3.10
2017-08-21T06:13:07.194Z,3.10
2017-08-21T06:15:33.885Z,3.80
2017-08-21T06:18:00.575Z,4.17
2017-08-21T06:20:27.311Z,4.00
2017-08-21T06:22:54.007Z,3.33
2017-08-21T06:25:20.709Z,4.43
2017-08-21T06:27:47.432Z,3.63
2017-08-21T06:30:14.132Z,3.13
2017-08-21T06:32:40.835Z,3.10
2017-08-21T06:35:07.586Z,3.60
2017-08-21T06:37:34.293Z,3.00
2017-08-21T06:40:01.002Z,4.23
2017-08-21T06:42:27.718Z,3.83
2017-08-21T06:44:54.427Z,2.93
2017-08-21T06:47:21.199Z,4.20
2017-08-21T06:49:47.928Z,3.20
2017-08-21T06:52:14.630Z,3.90
2017-08-21T06:54:41.321Z,3.50
2017-08-21T06:57:08.115Z,4.67
2017-08-21T06:59:34.816Z,4.33
2017-08-21T07:02:01.519Z,3.57
2017-08-21T07:04:28.284Z,3.70
2017-08-21T07:06:54.989Z,6.07
2017-08-21T07:09:21.770Z,3.53
2017-08-21T07:11:48.571Z,3.30
2017-08-21T07:14:15.270Z,3.47
2017-08-21T07:16:41.980Z,4.00
2017-08-21T07:19:08.700Z,3.17
2017-08-21T07:21:36.252Z,3.50
2017-08-21T07:24:02.999Z,2.97
2017-08-21T07:26:29.729Z,3.60
2017-08-21T07:28:56.444Z,2.70
2017-08-21T07:31:23.160Z,3.23
2017-08-21T07:33:49.900Z,3.10
2017-08-21T07:36:16.591Z,3.50
2017-08-21T07:38:43.277Z,3.47
2017-08-21T07:41:09.978Z,3.30
2017-08-21T07:43:36.694Z,3.10
2017-08-21T07:46:03.390Z,3.17
2017-08-21T07:48:30.110Z,2.87
2017-08-21T07:50:56.806Z,2.23
2017-08-21T07:53:23.498Z,2.70
2017-08-21T07:55:50.222Z,2.33
2017-08-21T07:58:16.919Z,2.97
2017-08-21T08:00:43.613Z,2.17
2017-08-21T08:03:10.346Z,2.00
2017-08-21T08:05:37.063Z,2.63
2017-08-21T08:08:03.789Z,2.33
2017-08-21T08:10:30.499Z,2.17
2017-08-21T08:12:57.205Z,2.70
2017-08-21T08:15:23.898Z,2.30
2017-08-21T08:17:50.607Z,2.40
2017-08-21T08:20:17.307Z,1.93
2017-08-21T08:22:43.994Z,1.93
2017-08-21T08:25:10.729Z,2.13
2017-08-21T08:27:37.497Z,2.10
2017-08-21T08:30:04.215Z,1.90
2017-08-21T08:32:30.929Z,2.33
2017-08-21T08:34:57.625Z,2.30
2017-08-21T08:37:24.318Z,2.10
2017-08-21T08:39:51.085Z,2.23
2017-08-21T08:42:17.788Z,1.97
2017-08-21T08:44:44.477Z,1.90
2017-08-21T08:47:11.183Z,1.90
2017-08-21T08:49:37.907Z,2.03
2017-08-21T08:52:04.602Z,1.77
2017-08-21T08:54:31.313Z,1.60
2017-08-21T08:56:58.037Z,1.50
2017-08-21T08:59:24.735Z,1.70
2017-08-21T09:01:51.466Z,1.80
2017-08-21T09:04:18.166Z,1.97
2017-08-21T09:06:44.857Z,1.50
2017-08-21T09:09:11.578Z,1.57
2017-08-21T09:11:38.298Z,2.00
2017-08-21T09:14:04.992Z,1.80
2017-08-21T09:16:31.715Z,1.53
2017-08-21T09:18:58.403Z,1.67
2017-08-21T09:21:25.087Z,1.70
2017-08-21T09:23:51.812Z,1.57
2017-08-21T09:26:18.495Z,1.70
2017-08-21T09:28:45.191Z,1.30
2017-08-21T09:31:11.932Z,1.40
2017-08-21T09:33:38.621Z,1.80
2017-08-21T09:36:05.456Z,1.80
2017-08-21T09:38:32.206Z,1.70
2017-08-21T09:40:58.896Z,1.60
2017-08-21T09:43:25.596Z,1.63
2017-08-21T09:45:52.328Z,1.50
2017-08-21T09:48:19.022Z,1.50
2017-08-21T09:50:45.718Z,1.50
2017-08-21T09:53:12.463Z,1.73
2017-08-21T09:55:39.159Z,1.67
2017-08-21T09:58:05.860Z,1.50
2017-08-21T10:00:32.584Z,1.50
2017-08-21T10:02:59.277Z,1.93
2017-08-21T10:05:25.981Z,1.50
2017-08-21T10:07:52.711Z,1.80
2017-08-21T10:10:19.409Z,1.73
2017-08-21T10:12:46.112Z,1.90
2017-08-21T10:15:12.853Z,1.73
2017-08-21T10:17:39.555Z,1.90
2017-08-21T10:20:06.255Z,1.77
2017-08-21T10:22:32.983Z,1.77
2017-08-21T10:24:59.678Z,1.30
2017-08-21T10:27:26.365Z,1.93
2017-08-21T10:29:53.112Z,1.90
2017-08-21T10:32:19.807Z,1.80
2017-08-21T10:34:46.608Z,1.50
2017-08-21T10:37:13.340Z,1.63
2017-08-21T10:39:40.038Z,1.97
2017-08-21T10:42:06.740Z,1.63
2017-08-21T10:44:33.465Z,1.80
2017-08-21T10:47:00.179Z,1.60
2017-08-21T10:49:26.878Z,1.60
2017-08-21T10:51:53.610Z,1.40
2017-08-21T10:54:20.314Z,1.60
2017-08-21T10:56:47.023Z,1.70
2017-08-21T10:59:13.770Z,1.80
2017-08-21T11:01:40.471Z,1.87
2017-08-21T11:04:07.193Z,2.50
2017-08-21T11:06:33.906Z,1.60
2017-08-21T11:09:00.598Z,2.47
2017-08-21T11:11:27.304Z,2.03
2017-08-21T11:13:54.015Z,1.77
2017-08-21T11:16:20.706Z,2.00
2017-08-21T11:18:47.409Z,2.00
2017-08-21T11:21:14.172Z,1.73
2017-08-21T11:23:40.894Z,2.03
2017-08-21T11:26:07.596Z,2.10
2017-08-21T11:28:34.323Z,2.10
2017-08-21T11:31:01.016Z,1.73
2017-08-21T11:33:27.711Z,1.70
2017-08-21T11:35:54.430Z,1.70
2017-08-21T11:38:21.141Z,1.40
2017-08-21T11:40:47.832Z,2.23
2017-08-21T11:43:14.575Z,2.00
2017-08-21T11:45:41.290Z,1.73
2017-08-21T11:48:07.977Z,1.60
2017-08-21T11:50:34.722Z,1.87
2017-08-21T11:53:01.409Z,1.33
2017-08-21T11:55:28.105Z,1.40
2017-08-21T11:57:54.932Z,1.93
2017-08-21T12:00:21.631Z,1.47
2017-08-21T12:02:48.337Z,1.57
2017-08-21T12:05:15.056Z,1.70
2017-08-21T12:07:41.754Z,1.50
2017-08-21T12:10:08.446Z,1.67
2017-08-21T12:12:35.189Z,1.60
2017-08-21T12:15:01.887Z,1.40
2017-08-21T12:17:28.604Z,1.57
2017-08-21T12:19:55.330Z,1.40
2017-08-21T12:22:22.036Z,2.00
2017-08-21T12:24:48.723Z,1.70
2017-08-21T12:27:15.477Z,1.33
2017-08-21T12:29:42.214Z,1.90
2017-08-21T12:32:08.935Z,1.47
2017-08-21T12:34:35.664Z,1.40
2017-08-21T12:37:02.363Z,1.67
2017-08-21T12:39:29.074Z,1.40
2017-08-21T12:41:55.795Z,1.47
2017-08-21T12:44:22.498Z,1.40
2017-08-21T12:46:49.207Z,1.70
2017-08-21T12:49:15.956Z,1.87
2017-08-21T12:51:42.660Z,1.87
2017-08-21T12:54:09.350Z,1.47
2017-08-21T12:56:36.187Z,1.67
2017-08-21T12:59:02.897Z,1.40
2017-08-21T13:01:29.601Z,1.40
2017-08-21T13:03:56.341Z,1.70
2017-08-21T13:06:23.077Z,1.30
2017-08-21T13:08:49.821Z,1.20
2017-08-21T13:11:16.534Z,1.70
2017-08-21T13:13:43.238Z,1.70
2017-08-21T13:16:09.927Z,1.40
2017-08-21T13:18:36.688Z,1.47
2017-08-21T13:21:03.397Z,1.30
2017-08-21T13:23:30.130Z,1.40
2017-08-21T13:25:56.877Z,1.43
2017-08-21T13:28:23.604Z,1.40
2017-08-21T13:30:50.315Z,1.67
2017-08-21T13:33:17.063Z,1.70
2017-08-21T13:35:43.769Z,1.30
2017-08-21T13:38:10.479Z,1.30
2017-08-21T13:40:37.212Z,1.53
2017-08-21T13:43:03.933Z,1.40
2017-08-21T13:45:30.632Z,1.60
2017-08-21T13:48:01.402Z,1.30
2017-08-21T13:50:28.103Z,1.80
2017-08-21T13:52:54.811Z,1.30
2017-08-21T13:55:21.552Z,1.17
2017-08-21T13:57:48.252Z,1.60
2017-08-21T14:00:14.943Z,1.50
2017-08-21T14:02:41.649Z,1.30
2017-08-21T14:05:08.351Z,1.10
2017-08-21T14:07:35.054Z,1.30
2017-08-21T14:10:01.812Z,1.43
2017-08-21T14:12:28.508Z,1.00
2017-08-21T14:14:55.254Z,1.60
2017-08-21T14:17:22.021Z,1.37
2017-08-21T14:19:48.810Z,1.40
2017-08-21T14:22:15.797Z,1.60
2017-08-21T14:24:42.672Z,1.07
2017-08-21T14:27:09.409Z,1.10
2017-08-21T14:29:36.160Z,1.33
2017-08-21T14:32:03.216Z,1.40
2017-08-21T14:34:29.922Z,1.70
2017-08-21T14:36:56.668Z,1.00
2017-08-21T14:39:23.421Z,1.20
2017-08-21T14:41:50.135Z,1.53
2017-08-21T14:44:16.853Z,1.57
2017-08-21T14:46:43.579Z,1.67
2017-08-21T14:49:10.325Z,1.43
2017-08-21T14:51:37.026Z,1.60
2017-08-21T14:54:03.761Z,1.30
2017-08-21T14:56:30.481Z,1.73
2017-08-21T15:04:30.032Z,1.77
2017-08-21T15:06:56.774Z,1.33
2017-08-21T15:09:23.466Z,1.20
2017-08-21T15:11:50.234Z,1.40
2017-08-21T15:14:16.954Z,1.53
2017-08-21T15:19:49.245Z,1.80
2017-08-21T15:22:15.984Z,1.40
2017-08-21T15:24:42.762Z,1.63
2017-08-21T15:27:09.551Z,1.10
2017-08-21T15:29:36.359Z,1.70
2017-08-21T15:32:03.065Z,1.37
2017-08-21T15:34:29.768Z,1.30
2017-08-21T15:36:56.493Z,1.40
2017-08-21T15:39:23.218Z,1.67
2017-08-21T15:41:50.010Z,1.53
2017-08-21T15:44:16.738Z,1.90
2017-08-21T15:46:43.518Z,1.33
2017-08-21T15:49:10.216Z,1.50
2017-08-21T15:51:36.995Z,1.93
2017-08-21T15:54:03.710Z,1.43
2017-08-21T15:56:30.463Z,1.30
2017-08-21T15:58:57.187Z,1.60
2017-08-21T16:01:23.944Z,1.40
2017-08-21T16:03:50.672Z,1.50
2017-08-21T16:06:17.394Z,1.67
2017-08-21T16:08:44.342Z,1.63
2017-08-21T16:11:11.064Z,1.67
2017-08-21T16:13:37.825Z,1.60
2017-08-21T16:16:04.538Z,1.63
2017-08-21T16:18:31.243Z,1.80
2017-08-21T16:20:57.967Z,1.80
2017-08-21T16:23:24.747Z,1.40
2017-08-21T16:25:51.714Z,1.60
2017-08-21T16:28:18.462Z,1.37
2017-08-21T16:30:45.186Z,1.57
2017-08-21T16:33:11.921Z,1.30
2017-08-21T16:35:38.740Z,1.40
2017-08-21T16:41:13.616Z,1.57
2017-08-21T16:43:47.488Z,1.67
2017-08-21T16:46:30.784Z,1.43
2017-08-21T16:51:50.701Z,1.33
2017-08-21T16:54:17.420Z,1.80
2017-08-21T16:56:44.109Z,1.50
2017-08-21T16:59:10.828Z,1.50
2017-08-21T17:01:37.537Z,2.97
2017-08-21T17:04:04.235Z,3.40
2017-08-21T17:06:30.971Z,3.90
2017-08-21T17:08:57.762Z,2.60
2017-08-21T17:11:24.490Z,3.80
2017-08-21T17:13:51.203Z,2.73
2017-08-21T17:16:17.977Z,3.37
2017-08-21T17:18:44.717Z,3.90
2017-08-21T17:21:11.470Z,6.70
2017-08-21T17:23:38.206Z,3.83
2017-08-21T17:26:04.925Z,2.90
2017-08-21T17:28:31.662Z,2.67
2017-08-21T17:30:58.436Z,2.10
2017-08-21T17:33:25.143Z,2.17
2017-08-21T17:35:51.899Z,1.90
2017-08-21T17:38:18.697Z,2.30
2017-08-21T17:40:45.492Z,1.90
2017-08-21T17:43:12.222Z,1.70
2017-08-21T17:45:38.920Z,1.77
2017-08-21T17:48:05.621Z,1.70
2017-08-21T17:50:32.356Z,2.83
2017-08-21T17:52:59.080Z,3.00
2017-08-21T17:55:25.881Z,1.70
2017-08-21T17:57:52.615Z,1.57
2017-08-21T18:00:19.312Z,2.07
2017-08-21T18:02:46.012Z,2.10
2017-08-21T18:05:12.770Z,2.00
2017-08-21T18:07:39.474Z,2.07
2017-08-21T18:10:06.234Z,1.67
2017-08-21T18:12:32.967Z,2.20
2017-08-21T18:14:59.678Z,1.57
2017-08-21T18:17:26.419Z,1.53
2017-08-21T18:19:53.149Z,1.80
2017-08-21T18:22:19.862Z,1.90
2017-08-21T18:24:46.568Z,1.73
2017-08-21T18:27:13.396Z,1.83
2017-08-21T18:29:40.118Z,1.90
2017-08-21T18:32:06.813Z,1.53
2017-08-21T18:34:33.580Z,1.93
2017-08-21T18:37:00.289Z,2.10
2017-08-21T18:39:26.996Z,1.90
2017-08-21T18:41:53.790Z,2.13
2017-08-21T18:44:20.594Z,1.70
2017-08-21T18:46:47.380Z,1.90
2017-08-21T18:49:14.134Z,1.80
2017-08-21T18:51:40.915Z,1.80
2017-08-21T18:54:07.623Z,1.90
2017-08-21T18:56:34.351Z,2.10
2017-08-21T18:59:01.057Z,1.67
2017-08-21T19:01:27.779Z,2.17
2017-08-21T19:03:54.592Z,1.83
2017-08-21T19:06:21.370Z,2.40
2017-08-21T19:08:48.131Z,1.70
2017-08-21T19:11:14.896Z,1.90
2017-08-21T19:13:41.618Z,1.93
2017-08-21T19:16:08.321Z,1.63
2017-08-21T19:18:35.063Z,2.30
2017-08-21T19:21:01.795Z,2.40
2017-08-21T19:23:28.512Z,1.50
2017-08-21T19:25:55.246Z,1.63
2017-08-21T19:28:21.971Z,1.93
2017-08-21T19:30:48.767Z,2.00
2017-08-21T19:33:16.595Z,1.90
2017-08-21T19:36:22.104Z,1.93
2017-08-21T19:38:49.147Z,1.60
2017-08-21T19:41:15.929Z,2.40
2017-08-21T19:43:42.675Z,2.37
2017-08-21T19:46:09.401Z,2.00
2017-08-21T19:48:36.161Z,1.90
2017-08-21T19:51:02.960Z,1.90
2017-08-21T19:53:29.702Z,1.70
2017-08-21T19:55:56.503Z,1.90
2017-08-21T19:58:23.295Z,1.90
2017-08-21T20:00:50.013Z,1.70
2017-08-21T20:03:16.740Z,2.20
2017-08-21T20:05:43.494Z,1.90
2017-08-21T20:08:10.314Z,2.10
2017-08-21T20:10:37.146Z,2.00
2017-08-21T20:13:03.903Z,2.20
2017-08-21T20:15:30.715Z,1.80
2017-08-21T20:17:57.476Z,1.57
2017-08-21T20:20:24.234Z,2.07
2017-08-21T20:22:50.996Z,1.73
2017-08-21T20:25:17.715Z,2.40
2017-08-21T20:27:44.532Z,1.83
2017-08-21T20:30:11.269Z,2.20
2017-08-21T20:32:37.999Z,2.13
2017-08-21T20:35:04.759Z,1.87
2017-08-21T20:37:31.467Z,1.50
2017-08-21T20:39:58.225Z,2.07
2017-08-21T20:42:24.961Z,2.23
2017-08-21T20:44:51.686Z,1.80
2017-08-21T20:47:18.407Z,2.20
2017-08-21T20:49:45.150Z,1.70
2017-08-21T20:52:11.854Z,1.87
2017-08-21T20:54:38.573Z,2.20
2017-08-21T20:57:05.309Z,1.80
2017-08-21T20:59:32.034Z,2.43
2017-08-21T21:01:58.780Z,1.80
2017-08-21T21:04:25.526Z,1.80
2017-08-21T21:06:52.269Z,1.93
2017-08-21T21:09:18.988Z,1.90
2017-08-21T21:11:45.714Z,2.10
2017-08-21T21:14:12.422Z,2.20
2017-08-21T21:16:39.149Z,2.23
2017-08-21T21:19:05.853Z,2.10
2017-08-21T21:21:32.566Z,2.10
2017-08-21T21:23:59.278Z,2.20
2017-08-21T21:26:25.988Z,2.13
2017-08-21T21:28:52.715Z,2.30
2017-08-21T21:31:19.450Z,2.47
2017-08-21T21:33:46.205Z,1.80
2017-08-21T21:36:12.917Z,2.07
2017-08-21T21:38:39.634Z,1.70
2017-08-21T21:41:06.390Z,2.17
2017-08-21T21:43:33.093Z,2.17
2017-08-21T21:45:59.799Z,1.83
2017-08-21T21:48:26.531Z,1.73
2017-08-21T21:50:53.251Z,1.90
2017-08-21T21:53:19.971Z,1.80
2017-08-21T21:55:46.689Z,1.67
2017-08-21T21:58:13.427Z,2.40
2017-08-21T22:00:40.159Z,2.30
2017-08-21T22:03:06.868Z,2.20
2017-08-21T22:05:33.609Z,2.53
2017-08-21T22:08:00.333Z,2.27
2017-08-21T22:10:27.052Z,2.53
2017-08-21T22:12:53.784Z,2.23
2017-08-21T22:15:20.511Z,2.60
2017-08-21T22:17:47.234Z,2.53
2017-08-21T22:20:13.949Z,2.43
2017-08-21T22:22:40.647Z,2.27
2017-08-21T22:25:07.366Z,2.20
2017-08-21T22:27:34.079Z,2.60
2017-08-21T22:30:00.789Z,2.80
2017-08-21T22:32:27.529Z,2.57
2017-08-21T22:34:54.269Z,2.47
2017-08-21T22:37:21.000Z,2.90
2017-08-21T22:39:47.806Z,2.10
2017-08-21T22:42:14.527Z,2.70
2017-08-21T22:44:41.227Z,2.50
2017-08-21T22:47:07.965Z,2.30
2017-08-21T22:49:34.676Z,2.63
2017-08-21T22:52:01.382Z,2.80
2017-08-21T22:54:28.086Z,2.57
2017-08-21T22:56:54.787Z,2.93
2017-08-21T22:59:21.498Z,2.57
2017-08-21T23:01:48.219Z,2.63
2017-08-21T23:04:14.929Z,2.40
2017-08-21T23:06:41.635Z,2.70
2017-08-21T23:09:08.373Z,2.60
2017-08-21T23:11:35.094Z,2.30
2017-08-21T23:14:01.806Z,2.67
2017-08-21T23:16:28.530Z,2.70
2017-08-21T23:18:55.229Z,2.20
2017-08-21T23:21:21.961Z,2.53
2017-08-21T23:23:48.667Z,2.97
2017-08-21T23:26:15.363Z,2.73
2017-08-21T23:28:42.066Z,2.67
2017-08-21T23:31:08.769Z,2.20
2017-08-21T23:33:35.470Z,2.93
2017-08-21T23:36:02.171Z,2.40
2017-08-21T23:38:28.894Z,2.80
2017-08-21T23:40:55.601Z,2.50
2017-08-21T23:43:22.298Z,2.67
2017-08-21T23:45:48.998Z,3.30
2017-08-21T23:48:15.699Z,2.57
2017-08-21T23:50:42.406Z,3.00
2017-08-21T23:53:09.153Z,2.60
2017-08-21T23:55:35.866Z,2.93
2017-08-21T23:58:02.603Z,3.40
